createdAt,value
2022-12-08T00:01:35.709Z,99676.34
2022-12-08T00:04:04.975Z,99663.91
2022-12-08T00:06:54.788Z,99679.34
2022-12-08T00:09:25.189Z,99671.94
2022-12-08T00:11:58.328Z,99667.69
2022-12-08T00:14:28.773Z,99680.28
2022-12-08T00:16:57.606Z,99694.03
2022-12-08T00:19:26.159Z,99685.31
2022-12-08T00:21:56.276Z,99688.56
2022-12-08T00:24:25.952Z,99678.72
2022-12-08T00:26:53.854Z,99692.00
2022-12-08T00:29:21.885Z,99682.81
2022-12-08T00:31:49.964Z,99698.22
2022-12-08T00:34:18.353Z,99696.53
2022-12-08T00:36:46.309Z,99686.16
2022-12-08T00:39:17.515Z,99684.59
2022-12-08T00:42:03.192Z,99687.47
2022-12-08T00:44:31.205Z,99687.47
2022-12-08T00:46:59.134Z,99689.09
2022-12-08T00:49:27.088Z,99688.47
2022-12-08T00:51:55.071Z,99694.22
2022-12-08T00:54:24.875Z,99686.44
2022-12-08T00:56:53.137Z,99686.06
2022-12-08T00:59:21.193Z,99688.38
2022-12-08T01:01:49.710Z,99682.31
2022-12-08T01:04:19.577Z,99665.25
2022-12-08T01:06:47.812Z,99686.75
2022-12-08T01:09:17.094Z,99688.63
2022-12-08T01:11:47.666Z,99702.09
2022-12-08T01:14:15.802Z,99696.22
2022-12-08T01:16:44.497Z,99692.97
2022-12-08T01:19:14.479Z,99690.50
2022-12-08T01:21:43.643Z,99696.00
2022-12-08T01:24:13.126Z,99690.53
2022-12-08T01:26:41.183Z,99694.72
2022-12-08T01:29:11.467Z,99683.03
2022-12-08T01:31:40.093Z,99692.25
2022-12-08T01:34:09.217Z,99690.47
2022-12-08T01:36:38.560Z,99696.47
2022-12-08T01:39:09.116Z,99698.47
2022-12-08T01:41:38.979Z,99703.31
2022-12-08T01:44:40.163Z,99703.66
2022-12-08T01:47:09.998Z,99701.03
2022-12-08T01:49:38.429Z,99682.84
2022-12-08T01:52:12.534Z,99689.84
2022-12-08T01:54:45.887Z,99674.28
2022-12-08T01:57:18.669Z,99687.50
2022-12-08T01:59:55.752Z,99687.41
2022-12-08T02:02:27.394Z,99692.50
2022-12-08T02:04:55.340Z,99686.78
2022-12-08T02:07:24.440Z,99684.94
2022-12-08T02:09:54.223Z,99685.66
2022-12-08T02:12:22.198Z,99693.28
2022-12-08T02:14:50.349Z,99689.03
2022-12-08T02:17:33.215Z,99684.97
2022-12-08T02:20:19.747Z,99671.88
2022-12-08T02:22:55.932Z,99679.84
2022-12-08T02:25:32.604Z,99683.56
2022-12-08T02:28:14.070Z,99692.91
2022-12-08T02:30:51.965Z,99686.53
2022-12-08T02:33:58.208Z,99644.38
2022-12-08T02:36:31.126Z,99688.56
2022-12-08T02:39:04.531Z,99682.84
2022-12-08T02:41:40.647Z,99697.75
2022-12-08T02:44:17.298Z,99703.63
2022-12-08T02:47:01.762Z,99695.06
2022-12-08T02:49:32.344Z,99693.78
2022-12-08T02:52:08.229Z,99699.63
2022-12-08T02:54:38.472Z,99705.81
2022-12-08T02:57:31.848Z,99708.94
2022-12-08T03:00:07.759Z,99701.34
2022-12-08T03:02:49.738Z,99713.13
2022-12-08T03:05:38.455Z,99706.16
2022-12-08T03:08:13.448Z,99697.03
2022-12-08T03:10:48.108Z,99709.63
2022-12-08T03:13:18.514Z,99700.09
2022-12-08T03:15:51.174Z,99667.41
2022-12-08T03:18:21.856Z,99692.50
2022-12-08T03:20:52.165Z,99686.72
2022-12-08T03:23:20.982Z,99684.94
2022-12-08T03:25:55.624Z,99691.00
2022-12-08T03:28:23.885Z,99676.84
2022-12-08T03:30:56.998Z,99678.41
2022-12-08T03:33:30.674Z,99683.41
2022-12-08T03:36:02.875Z,99686.03
2022-12-08T03:38:39.797Z,99701.66
2022-12-08T03:41:20.171Z,99695.63
2022-12-08T03:43:49.160Z,99711.75
2022-12-08T03:46:17.789Z,99692.44
2022-12-08T03:48:46.161Z,99707.28
2022-12-08T03:51:15.804Z,99703.13
2022-12-08T03:53:44.086Z,99702.50
2022-12-08T03:56:17.383Z,99706.13
2022-12-08T03:58:45.688Z,99704.28
2022-12-08T04:01:13.940Z,99701.09
2022-12-08T04:03:41.882Z,99695.38
2022-12-08T04:06:09.824Z,99694.88
2022-12-08T04:08:39.368Z,99686.94
2022-12-08T04:11:07.664Z,99696.00
2022-12-08T04:13:35.994Z,99696.97
2022-12-08T04:16:05.125Z,99694.81
2022-12-08T04:18:33.192Z,99702.59
2022-12-08T04:21:01.265Z,99691.81
2022-12-08T04:23:29.222Z,99712.56
2022-12-08T04:25:58.535Z,99707.25
2022-12-08T04:28:26.485Z,99714.25
2022-12-08T04:30:54.496Z,99707.81
2022-12-08T04:33:22.502Z,99702.66
2022-12-08T04:35:50.500Z,99695.47
2022-12-08T04:38:18.749Z,99702.16
2022-12-08T04:40:46.682Z,99706.78
2022-12-08T04:43:15.985Z,99716.72
2022-12-08T04:45:44.367Z,99718.66
2022-12-08T04:48:13.436Z,99683.78
2022-12-08T04:50:42.856Z,99677.66
2022-12-08T04:53:12.027Z,99697.72
2022-12-08T04:55:41.366Z,99698.88
2022-12-08T04:58:09.347Z,99689.06
2022-12-08T05:00:38.735Z,99699.00
2022-12-08T05:03:06.669Z,99700.50
2022-12-08T05:05:34.654Z,99710.66
2022-12-08T05:08:03.008Z,99718.84
2022-12-08T05:10:30.965Z,99713.06
2022-12-08T05:12:59.467Z,99727.63
2022-12-08T05:15:27.573Z,99715.56
2022-12-08T05:17:56.961Z,99717.22
2022-12-08T05:20:24.950Z,99725.47
2022-12-08T05:22:55.979Z,99723.13
2022-12-08T05:25:23.873Z,99725.81
2022-12-08T05:27:55.275Z,99734.53
2022-12-08T05:30:29.782Z,99728.22
2022-12-08T05:32:59.122Z,99735.59
2022-12-08T05:35:27.003Z,99739.31
2022-12-08T05:37:55.093Z,99742.59
2022-12-08T05:40:22.965Z,99739.38
2022-12-08T05:42:50.844Z,99741.22
2022-12-08T05:45:18.934Z,99750.22
2022-12-08T05:47:46.899Z,99754.28
2022-12-08T05:50:16.265Z,99742.03
2022-12-08T05:52:44.135Z,99753.94
2022-12-08T05:55:12.062Z,99757.66
2022-12-08T05:57:40.044Z,99757.94
2022-12-08T06:00:09.878Z,99766.22
2022-12-08T06:02:37.968Z,99759.75
2022-12-08T06:05:06.758Z,99765.22
2022-12-08T06:07:36.139Z,99763.91
2022-12-08T06:10:05.160Z,99769.03
2022-12-08T06:12:33.812Z,99770.06
2022-12-08T06:15:02.242Z,99771.88
2022-12-08T06:17:30.178Z,99767.13
2022-12-08T06:19:58.056Z,99771.78
2022-12-08T06:22:26.039Z,99765.22
2022-12-08T06:24:55.370Z,99770.88
2022-12-08T06:27:23.366Z,99732.06
2022-12-08T06:29:51.370Z,99762.16
2022-12-08T06:32:24.364Z,99771.25
2022-12-08T06:34:55.199Z,99777.19
2022-12-08T06:37:23.251Z,99662.50
2022-12-08T06:39:51.915Z,99778.84
2022-12-08T06:42:38.909Z,99653.16
2022-12-08T06:45:08.121Z,99779.59
2022-12-08T06:47:36.075Z,99782.03
2022-12-08T06:50:04.474Z,99780.34
2022-12-08T06:52:32.791Z,99789.25
2022-12-08T06:55:00.751Z,99793.47
2022-12-08T06:57:30.061Z,99781.53
2022-12-08T06:59:57.931Z,99784.25
2022-12-08T07:02:26.047Z,99788.09
2022-12-08T07:04:54.143Z,99785.38
2022-12-08T07:07:22.047Z,99794.06
2022-12-08T07:09:50.039Z,99791.84
2022-12-08T07:12:17.948Z,99786.09
2022-12-08T07:14:47.284Z,99798.53
2022-12-08T07:17:15.314Z,99779.78
2022-12-08T07:19:43.382Z,99794.44
2022-12-08T07:22:11.338Z,99800.97
2022-12-08T07:24:39.237Z,99809.19
2022-12-08T07:27:07.119Z,99813.84
2022-12-08T07:29:35.218Z,99818.22
2022-12-08T07:32:04.600Z,99823.03
2022-12-08T07:34:32.521Z,99824.44
2022-12-08T07:37:00.484Z,99826.56
2022-12-08T07:39:28.710Z,99832.88
2022-12-08T07:41:56.738Z,99834.72
2022-12-08T07:44:24.775Z,99840.66
2022-12-08T07:46:52.688Z,99846.06
2022-12-08T07:49:22.364Z,99837.50
2022-12-08T07:51:50.348Z,99838.09
2022-12-08T07:54:18.279Z,99848.06
2022-12-08T07:56:46.286Z,99822.66
2022-12-08T07:59:14.675Z,99837.91
2022-12-08T08:01:45.328Z,99845.91
2022-12-08T08:04:13.650Z,99843.69
2022-12-08T08:06:42.965Z,99837.53
2022-12-08T08:09:11.222Z,99845.91
2022-12-08T08:11:39.213Z,99853.72
2022-12-08T08:14:07.145Z,99850.44
2022-12-08T08:16:38.560Z,99855.00
2022-12-08T08:19:06.977Z,99849.41
2022-12-08T08:21:45.491Z,99849.59
2022-12-08T08:24:15.585Z,99852.28
2022-12-08T08:26:43.541Z,99850.19
2022-12-08T08:29:11.517Z,99849.06
2022-12-08T08:31:39.617Z,99844.25
2022-12-08T08:34:07.675Z,99840.97
2022-12-08T08:36:35.578Z,99850.16
2022-12-08T08:39:03.802Z,99847.19
2022-12-08T08:41:33.137Z,99831.53
2022-12-08T08:44:01.111Z,99844.59
2022-12-08T08:46:29.120Z,99843.41
2022-12-08T08:48:57.672Z,99836.06
2022-12-08T08:51:25.834Z,99838.75
2022-12-08T08:53:53.814Z,99805.81
2022-12-08T08:56:21.941Z,99823.69
2022-12-08T08:58:52.952Z,99797.81
2022-12-08T09:01:22.598Z,99826.50
2022-12-08T09:03:50.708Z,99821.03
2022-12-08T09:06:19.336Z,99818.97
2022-12-08T09:08:48.411Z,99806.22
2022-12-08T09:11:18.757Z,99801.59
2022-12-08T09:13:49.524Z,99811.75
2022-12-08T09:16:19.882Z,99804.19
2022-12-08T09:18:49.328Z,99810.78
2022-12-08T09:21:22.516Z,99808.53
2022-12-08T09:23:51.435Z,99784.53
2022-12-08T09:26:22.410Z,99797.59
2022-12-08T09:28:50.541Z,99795.06
2022-12-08T09:31:21.575Z,99796.84
2022-12-08T09:33:51.715Z,99793.88
2022-12-08T09:36:19.944Z,99789.06
2022-12-08T09:38:47.924Z,99786.66
2022-12-08T09:41:18.890Z,99786.91
2022-12-08T09:44:00.001Z,99781.31
2022-12-08T09:46:33.325Z,99782.91
2022-12-08T09:49:03.325Z,99776.56
2022-12-08T09:51:36.482Z,99787.91
2022-12-08T09:54:08.975Z,99776.88
2022-12-08T09:56:38.867Z,99776.47
2022-12-08T09:59:18.121Z,99776.47
2022-12-08T10:01:47.505Z,99758.66
2022-12-08T10:04:21.939Z,99773.38
2022-12-08T10:07:00.414Z,99764.16
2022-12-08T10:09:36.734Z,99766.63
2022-12-08T10:12:15.031Z,99768.44
2022-12-08T10:14:45.168Z,99766.63
2022-12-08T10:17:19.799Z,99770.56
2022-12-08T10:19:49.485Z,99749.63
2022-12-08T10:22:22.189Z,99744.97
2022-12-08T10:24:58.763Z,99751.09
2022-12-08T10:27:26.961Z,99745.91
2022-12-08T10:29:54.891Z,99747.06
2022-12-08T10:32:25.498Z,99753.00
2022-12-08T10:35:02.227Z,99751.53
2022-12-08T10:37:30.246Z,99760.94
2022-12-08T10:40:03.277Z,99746.72
2022-12-08T10:42:38.556Z,99726.84
2022-12-08T10:45:27.129Z,99735.06
2022-12-08T10:48:02.673Z,99736.44
2022-12-08T10:50:34.218Z,99734.22
2022-12-08T10:53:10.560Z,99731.03
2022-12-08T10:55:43.426Z,99717.53
2022-12-08T10:58:33.881Z,99727.78
2022-12-08T11:01:06.784Z,99725.47
2022-12-08T11:03:40.636Z,99731.94
2022-12-08T11:06:16.115Z,99732.16
2022-12-08T11:08:53.998Z,99732.06
2022-12-08T11:11:29.251Z,99715.06
2022-12-08T11:13:57.838Z,99724.75
2022-12-08T11:16:26.147Z,99715.78
2022-12-08T11:18:59.401Z,99716.94
2022-12-08T11:21:37.049Z,99705.88
2022-12-08T11:24:24.378Z,99694.41
2022-12-08T11:26:55.803Z,99705.06
2022-12-08T11:29:24.098Z,99700.84
2022-12-08T11:31:58.328Z,99703.56
2022-12-08T11:34:34.931Z,99686.47
2022-12-08T11:37:06.401Z,99683.47
2022-12-08T11:39:37.505Z,99687.09
2022-12-08T11:42:09.027Z,99695.16
2022-12-08T11:44:42.164Z,99679.00
2022-12-08T11:47:16.200Z,99681.19
2022-12-08T11:52:23.790Z,99684.22
2022-12-08T11:54:56.400Z,99682.56
2022-12-08T11:57:27.381Z,99652.31
2022-12-08T11:59:59.195Z,99676.03
2022-12-08T12:02:30.034Z,99673.34
2022-12-08T12:05:03.484Z,99660.41
2022-12-08T12:07:43.276Z,99673.22
2022-12-08T12:10:40.168Z,99665.97
2022-12-08T12:13:27.130Z,99671.03
2022-12-08T12:16:35.285Z,99676.47
2022-12-08T12:19:06.402Z,99670.78
2022-12-08T12:21:40.326Z,99686.03
2022-12-08T12:24:11.452Z,99683.78
2022-12-08T12:26:50.445Z,99689.78
2022-12-08T12:29:21.030Z,99692.31
2022-12-08T12:31:53.172Z,99677.34
2022-12-08T12:34:25.366Z,99682.03
2022-12-08T12:36:57.990Z,99687.56
2022-12-08T12:39:29.848Z,99697.13
2022-12-08T12:41:59.676Z,99697.03
2022-12-08T12:44:43.340Z,99701.31
2022-12-08T12:47:36.135Z,99689.84
2022-12-08T12:50:10.380Z,99692.56
2022-12-08T12:52:48.841Z,99668.16
2022-12-08T12:55:52.189Z,99641.19
2022-12-08T12:58:50.806Z,99683.38
2022-12-08T13:01:51.563Z,99676.56
2022-12-08T13:04:20.449Z,99669.75
2022-12-08T13:06:51.697Z,99702.25
2022-12-08T13:09:36.274Z,99694.75
2022-12-08T13:12:11.526Z,99690.03
2022-12-08T13:14:47.967Z,99683.91
2022-12-08T13:17:25.298Z,99687.75
2022-12-08T13:19:57.421Z,99670.34
2022-12-08T13:23:02.107Z,99679.81
2022-12-08T13:26:14.502Z,99674.44
2022-12-08T13:29:15.247Z,99666.50
2022-12-08T13:31:50.100Z,99670.56
2022-12-08T13:34:23.028Z,99672.50
2022-12-08T13:36:58.406Z,99662.09
2022-12-08T13:39:33.294Z,99670.53
2022-12-08T13:42:06.820Z,99658.31
2022-12-08T13:47:34.936Z,99668.28
2022-12-08T13:51:07.023Z,99687.13
2022-12-08T13:58:39.846Z,99690.88
2022-12-08T14:01:15.011Z,99683.50
2022-12-08T14:04:12.849Z,99694.94
2022-12-08T14:06:40.383Z,99678.41
2022-12-08T14:09:13.873Z,99683.81
2022-12-08T14:11:47.776Z,99674.00
2022-12-08T14:14:38.866Z,99677.22
2022-12-08T14:17:11.392Z,99670.34
2022-12-08T14:19:39.679Z,99675.47
2022-12-08T14:22:12.783Z,99680.03
2022-12-08T14:24:45.209Z,99657.31
2022-12-08T14:27:17.775Z,99676.16
2022-12-08T14:29:47.738Z,99678.56
2022-12-08T14:32:26.074Z,99680.22
2022-12-08T14:34:55.891Z,99670.00
2022-12-08T14:37:26.181Z,99670.63
2022-12-08T14:39:58.687Z,99659.44
2022-12-08T14:42:29.442Z,99683.63
2022-12-08T14:45:01.323Z,99692.25
2022-12-08T14:47:34.968Z,99696.09
2022-12-08T14:50:04.800Z,99695.78
2022-12-08T14:52:33.060Z,99681.19
2022-12-08T14:55:01.267Z,99688.59
2022-12-08T14:57:35.341Z,99682.22
2022-12-08T15:00:11.166Z,99686.28
2022-12-08T15:02:45.772Z,99686.06
2022-12-08T15:05:17.099Z,99668.16
2022-12-08T15:07:51.000Z,99676.63
2022-12-08T15:10:30.938Z,99683.91
2022-12-08T15:13:07.541Z,99674.44
2022-12-08T15:15:49.484Z,99688.28
2022-12-08T15:18:19.488Z,99695.25
2022-12-08T15:20:50.049Z,99692.56
2022-12-08T15:23:23.874Z,99696.50
2022-12-08T15:25:52.456Z,99700.88
2022-12-08T15:28:29.291Z,99696.22
2022-12-08T15:30:58.802Z,99693.19
2022-12-08T15:33:27.961Z,99695.59
2022-12-08T15:35:55.981Z,99700.38
2022-12-08T15:38:26.148Z,99705.47
2022-12-08T15:40:55.075Z,99702.13
2022-12-08T15:43:24.449Z,99700.03
2022-12-08T15:46:01.144Z,99707.16
2022-12-08T15:48:31.152Z,99701.63
2022-12-08T15:50:59.602Z,99707.38
2022-12-08T15:53:27.818Z,99712.78
2022-12-08T15:58:53.482Z,99694.44
2022-12-08T16:01:22.698Z,99705.59
2022-12-08T16:09:32.374Z,99686.22
2022-12-08T16:12:17.966Z,99714.06
2022-12-08T16:15:47.103Z,99704.94
2022-12-08T16:17:36.106Z,99700.91
2022-12-08T16:20:06.831Z,99705.56
2022-12-08T16:25:23.690Z,99693.19
2022-12-08T16:28:17.272Z,99692.13
2022-12-08T16:30:44.319Z,99706.25
2022-12-08T16:33:13.720Z,99692.13
2022-12-08T16:35:42.094Z,99692.63
2022-12-08T16:38:14.626Z,99703.31
2022-12-08T16:40:59.356Z,99703.53
2022-12-08T16:43:27.373Z,99694.50
2022-12-08T16:45:56.690Z,99711.38
2022-12-08T16:48:24.631Z,99714.75
2022-12-08T16:50:53.975Z,99699.94
2022-12-08T16:53:26.248Z,99698.28
2022-12-08T16:55:54.353Z,99694.22
2022-12-08T16:58:22.580Z,99703.19
2022-12-08T17:00:50.480Z,99700.34
2022-12-08T17:03:19.875Z,99715.88
2022-12-08T17:05:47.793Z,99729.00
2022-12-08T17:08:15.831Z,99715.44
2022-12-08T17:10:43.984Z,99709.84
2022-12-08T17:13:16.925Z,99712.25
2022-12-08T17:15:44.924Z,99713.50
2022-12-08T17:18:12.898Z,99714.94
2022-12-08T17:20:42.290Z,99714.22
2022-12-08T17:23:10.137Z,99719.66
2022-12-08T17:25:38.097Z,99718.59
2022-12-08T17:28:06.356Z,99716.81
2022-12-08T17:30:34.292Z,99729.38
2022-12-08T17:33:02.265Z,99721.91
2022-12-08T17:35:32.312Z,99712.56
2022-12-08T17:38:01.621Z,99724.22
2022-12-08T17:40:29.570Z,99726.25
2022-12-08T17:42:57.567Z,99725.56
2022-12-08T17:45:25.536Z,99704.63
2022-12-08T17:47:53.513Z,99715.22
2022-12-08T17:50:21.453Z,99718.94
2022-12-08T17:52:51.298Z,99726.56
2022-12-08T17:55:20.621Z,99715.63
2022-12-08T17:57:48.680Z,99731.88
2022-12-08T18:00:17.028Z,99724.38
2022-12-08T18:02:45.053Z,99714.38
2022-12-08T18:05:13.047Z,99728.97
2022-12-08T18:07:41.053Z,99730.44
2022-12-08T18:10:09.586Z,99730.72
2022-12-08T18:12:39.034Z,99727.91
2022-12-08T18:15:09.266Z,99730.06
2022-12-08T18:17:37.237Z,99723.31
2022-12-08T18:20:06.191Z,99732.31
2022-12-08T18:22:34.486Z,99729.13
2022-12-08T18:25:02.589Z,99725.06
2022-12-08T18:27:30.534Z,99729.13
2022-12-08T18:30:00.541Z,99728.94
2022-12-08T18:32:28.533Z,99720.22
2022-12-08T18:34:56.537Z,99723.56
2022-12-08T18:37:24.480Z,99727.88
2022-12-08T18:39:53.786Z,99729.47
2022-12-08T18:42:24.295Z,99740.13
2022-12-08T18:44:56.248Z,99742.63
2022-12-08T18:47:25.963Z,99745.88
2022-12-08T18:49:54.050Z,99744.69
2022-12-08T18:52:28.217Z,99737.19
2022-12-08T18:55:07.666Z,99726.78
2022-12-08T18:57:35.941Z,99715.81
2022-12-08T19:00:05.615Z,99714.59
2022-12-08T19:02:36.197Z,99724.97
2022-12-08T19:05:04.205Z,99726.72
2022-12-08T19:07:32.487Z,99729.81
2022-12-08T19:10:00.593Z,99731.84
2022-12-08T19:12:28.607Z,99713.16
2022-12-08T19:14:56.699Z,99719.75
2022-12-08T19:17:25.906Z,99725.69
2022-12-08T19:19:55.289Z,99732.50
2022-12-08T19:22:23.299Z,99717.28
2022-12-08T19:24:51.355Z,99722.50
2022-12-08T19:27:19.647Z,99710.28
2022-12-08T19:29:50.373Z,99716.69
2022-12-08T19:32:18.383Z,99715.59
2022-12-08T19:34:46.429Z,99719.13
2022-12-08T19:37:16.014Z,99710.47
2022-12-08T19:40:01.485Z,99714.00
2022-12-08T19:42:47.181Z,99715.16
2022-12-08T19:45:17.363Z,99721.00
2022-12-08T19:47:45.368Z,99723.22
2022-12-08T19:50:32.749Z,99740.47
2022-12-08T19:53:03.200Z,99727.50
2022-12-08T19:55:31.120Z,99722.69
2022-12-08T19:57:59.840Z,99704.75
2022-12-08T20:00:27.780Z,99732.09
2022-12-08T20:02:56.203Z,99726.50
2022-12-08T20:05:24.285Z,99722.81
2022-12-08T20:07:55.627Z,99728.56
2022-12-08T20:10:28.207Z,99723.03
2022-12-08T20:13:17.027Z,99720.34
2022-12-08T20:15:46.359Z,99724.31
2022-12-08T20:18:15.940Z,99725.94
2022-12-08T20:20:45.361Z,99723.94
2022-12-08T20:23:14.199Z,99715.22
2022-12-08T20:25:45.424Z,99707.22
2022-12-08T20:28:13.561Z,99725.09
2022-12-08T20:30:44.212Z,99725.16
2022-12-08T20:33:14.823Z,99728.94
2022-12-08T20:35:43.340Z,99732.22
2022-12-08T20:38:12.583Z,99736.19
2022-12-08T20:40:46.337Z,99733.50
2022-12-08T20:43:14.429Z,99732.38
2022-12-08T20:45:42.348Z,99735.50
2022-12-08T20:48:10.427Z,99740.09
2022-12-08T20:50:38.642Z,99746.22
2022-12-08T20:53:06.863Z,99756.84
2022-12-08T20:55:35.432Z,99754.41
2022-12-08T20:58:04.933Z,99762.50
2022-12-08T21:00:33.073Z,99752.31
2022-12-08T21:03:01.293Z,99756.31
2022-12-08T21:05:29.787Z,99652.81
2022-12-08T21:07:58.190Z,99750.72
2022-12-08T21:10:26.239Z,99750.53
2022-12-08T21:12:54.435Z,99755.34
2022-12-08T21:15:23.836Z,99750.66
2022-12-08T21:17:51.868Z,99753.84
2022-12-08T21:20:20.160Z,99757.59
2022-12-08T21:22:48.229Z,99752.19
2022-12-08T21:25:16.293Z,99745.16
2022-12-08T21:27:44.346Z,99733.63
2022-12-08T21:30:13.602Z,99763.16
2022-12-08T21:32:43.232Z,99770.13
2022-12-08T21:35:11.788Z,99778.06
2022-12-08T21:37:39.950Z,99784.31
2022-12-08T21:40:09.427Z,99779.78
2022-12-08T21:42:46.516Z,99772.97
2022-12-08T21:45:16.466Z,99764.84
2022-12-08T21:47:47.249Z,99768.25
2022-12-08T21:50:16.217Z,99766.03
2022-12-08T21:52:46.857Z,99772.09
2022-12-08T21:55:17.161Z,99774.13
2022-12-08T21:57:45.133Z,99770.31
2022-12-08T22:00:17.317Z,99773.72
2022-12-08T22:02:47.285Z,99764.50
2022-12-08T22:05:15.525Z,99746.50
2022-12-08T22:07:43.845Z,99768.16
2022-12-08T22:10:12.776Z,99773.59
2022-12-08T22:12:41.445Z,99758.38
2022-12-08T22:15:11.516Z,99772.47
2022-12-08T22:17:41.279Z,99755.63
2022-12-08T22:20:13.695Z,99756.28
2022-12-08T22:22:42.268Z,99764.13
2022-12-08T22:25:12.515Z,99755.91
2022-12-08T22:27:41.174Z,99771.16
2022-12-08T22:30:11.076Z,99763.16
2022-12-08T22:32:39.899Z,99764.91
2022-12-08T22:35:08.369Z,99766.69
2022-12-08T22:37:37.634Z,99766.13
2022-12-08T22:40:07.586Z,99764.28
2022-12-08T22:42:35.743Z,99752.03
2022-12-08T22:45:03.677Z,99725.63
2022-12-08T22:47:31.640Z,99752.03
2022-12-08T22:49:59.534Z,99757.88
2022-12-08T22:52:27.681Z,99723.97
2022-12-08T22:54:57.088Z,99732.03
2022-12-08T22:57:25.185Z,99742.44
2022-12-08T22:59:53.132Z,99742.09
2022-12-08T23:02:21.069Z,99733.25
2022-12-08T23:04:50.505Z,99742.28
2022-12-08T23:07:18.606Z,99746.69
2022-12-08T23:09:46.741Z,99752.22
2022-12-08T23:12:16.095Z,99745.72
2022-12-08T23:14:44.032Z,99738.41
2022-12-08T23:17:12.582Z,99747.19
2022-12-08T23:19:40.768Z,99730.75
2022-12-08T23:22:08.723Z,99733.09
2022-12-08T23:24:36.775Z,99718.22
2022-12-08T23:27:05.091Z,99728.00
2022-12-08T23:29:34.370Z,99727.09
2022-12-08T23:32:02.420Z,99742.97
2022-12-08T23:34:30.346Z,99749.09
2022-12-08T23:36:58.234Z,99739.25
2022-12-08T23:39:26.135Z,99748.97
2022-12-08T23:41:54.187Z,99752.78
2022-12-08T23:44:22.349Z,99752.78
2022-12-08T23:46:51.750Z,99759.25
2022-12-08T23:49:21.304Z,99751.56
2022-12-08T23:51:49.275Z,99755.56
2022-12-08T23:54:17.390Z,99754.34
2022-12-08T23:56:45.400Z,99762.16
2022-12-08T23:59:13.666Z,99767.91
